Time;durP1;ratioP1;P1;durP2;ratioP2;P2;SDS_P1;SDS_P2;PMS_P1;PMS_P2;Temp;Humidity;BMP_temperature;BMP_pressure;BME280_temperature;BME280_humidity;BME280_pressure;Samples;Min_cycle;Max_cycle;Signal;HPM_P1;HPM_P2
2022/12/16 00:03:38;;;;;;;31.63;26.77;;;;;;;;;;10116749;28;20213;-72
2022/12/16 00:08:36;;;;;;;31.02;27.63;;;;;;;;;;10116958;28;20782;-72
2022/12/16 00:13:33;;;;;;;34.15;26.55;;;;;;;;;;10111445;28;20579;-71
2022/12/16 00:18:30;;;;;;;36.97;26.10;;;;;;;;;;10115571;28;20082;-73
2022/12/16 00:23:26;;;;;;;36.95;27.38;;;;;;;;;;10115631;28;20046;-72
2022/12/16 00:28:23;;;;;;;32.40;25.42;;;;;;;;;;10112109;28;20412;-72
2022/12/16 00:33:20;;;;;;;28.50;25.40;;;;;;;;;;10110663;28;20051;-72
2022/12/16 00:38:16;;;;;;;34.70;26.85;;;;;;;;;;10116772;28;20054;-73
2022/12/16 00:43:13;;;;;;;39.00;28.15;;;;;;;;;;10110925;28;20125;-72
2022/12/16 00:48:09;;;;;;;28.73;24.77;;;;;;;;;;10112097;28;20053;-72
2022/12/16 00:53:05;;;;;;;34.67;26.65;;;;;;;;;;10108484;28;20437;-73
2022/12/16 00:58:01;;;;;;;32.70;27.98;;;;;;;;;;10105313;28;20043;-70
2022/12/16 01:02:58;;;;;;;35.58;26.08;;;;;;;;;;10103401;28;20049;-72
2022/12/16 01:07:54;;;;;;;31.48;25.05;;;;;;;;;;10122434;28;20108;-73
2022/12/16 01:12:51;;;;;;;31.27;25.42;;;;;;;;;;10097460;28;20500;-73
2022/12/16 01:17:48;;;;;;;35.47;27.40;;;;;;;;;;10125620;28;20058;-73
2022/12/16 01:22:45;;;;;;;34.22;26.23;;;;;;;;;;10114232;28;20078;-72
2022/12/16 01:27:41;;;;;;;34.85;27.70;;;;;;;;;;10114641;28;20294;-72
2022/12/16 01:32:37;;;;;;;37.50;26.73;;;;;;;;;;10101073;28;20057;-71
2022/12/16 01:37:33;;;;;;;37.28;27.60;;;;;;;;;;10119105;28;20307;-71
2022/12/16 01:42:32;;;;;;;33.75;26.73;;;;;;;;;;10105190;28;20062;-73
2022/12/16 01:47:31;;;;;;;39.03;28.90;;;;;;;;;;10107032;28;20137;-72
2022/12/16 01:52:32;;;;;;;33.05;26.70;;;;;;;;;;10108473;28;20049;-71
2022/12/16 01:57:33;;;;;;;33.43;27.23;;;;;;;;;;10105649;28;20054;-71
2022/12/16 02:02:29;;;;;;;33.97;27.17;;;;;;;;;;10122267;28;20142;-71
2022/12/16 02:07:26;;;;;;;31.98;26.00;;;;;;;;;;10109864;28;20047;-71
2022/12/16 02:12:26;;;;;;;33.60;25.48;;;;;;;;;;10111607;28;20483;-71
2022/12/16 02:17:29;;;;;;;39.20;27.15;;;;;;;;;;10128868;28;20165;-73
2022/12/16 02:22:25;;;;;;;;;;;;;;;;;;10110304;28;20659;-72
2022/12/16 02:27:40;;;;;;;37.88;26.85;;;;;;;;;;10118772;28;20277;-73
2022/12/16 02:32:58;;;;;;;33.45;26.05;;;;;;;;;;10135198;28;20066;-72
2022/12/16 02:38:00;;;;;;;36.13;27.10;;;;;;;;;;10117936;28;20050;-72
2022/12/16 02:42:59;;;;;;;37.53;27.67;;;;;;;;;;10121614;28;20071;-72
2022/12/16 02:47:57;;;;;;;30.40;26.65;;;;;;;;;;10114789;28;20062;-73
2022/12/16 02:52:54;;;;;;;39.38;28.20;;;;;;;;;;10114918;28;20275;-73
2022/12/16 02:58:01;;;;;;;36.85;28.50;;;;;;;;;;10122403;28;20134;-72
2022/12/16 03:03:11;;;;;;;31.77;27.10;;;;;;;;;;10122176;28;20043;-71
2022/12/16 03:08:13;;;;;;;40.75;29.35;;;;;;;;;;10120273;28;20046;-72
2022/12/16 03:13:10;;;;;;;45.70;29.77;;;;;;;;;;10120902;28;20415;-73
2022/12/16 03:18:08;;;;;;;37.75;30.67;;;;;;;;;;10106891;28;21862;-70
2022/12/16 03:23:11;;;;;;;32.78;27.92;;;;;;;;;;10106660;28;20066;-70
2022/12/16 03:28:26;;;;;;;36.63;28.73;;;;;;;;;;10115158;28;20505;-70
2022/12/16 03:33:25;;;;;;;34.60;29.27;;;;;;;;;;10127569;28;20054;-69
2022/12/16 03:38:22;;;;;;;35.30;29.58;;;;;;;;;;10127429;28;20047;-73
2022/12/16 03:43:19;;;;;;;37.58;28.60;;;;;;;;;;10113623;28;20039;-73
2022/12/16 03:48:19;;;;;;;36.20;29.48;;;;;;;;;;10111457;28;20591;-72
2022/12/16 03:53:15;;;;;;;39.58;30.48;;;;;;;;;;10116470;28;20043;-72
2022/12/16 03:58:11;;;;;;;34.45;29.35;;;;;;;;;;10115383;28;20483;-72
2022/12/16 04:03:08;;;;;;;35.65;30.73;;;;;;;;;;10117989;28;20053;-72
2022/12/16 04:08:05;;;;;;;35.20;31.08;;;;;;;;;;10126214;28;20053;-73
2022/12/16 04:28:48;;;;;;;36.85;30.00;;;;;;;;;;10109042;28;20117;-69
